sensor_id;sensor_type;location;lat;lon;timestamp;P1;durP1;ratioP1;P2;durP2;ratioP2
23300;SDS011;11819;51.394;12.340;2023-07-22T00:00:20;12.10;;;9.00;;
23300;SDS011;11819;51.394;12.340;2023-07-22T00:02:47;11.73;;;8.77;;
23300;SDS011;11819;51.394;12.340;2023-07-22T00:05:13;11.30;;;9.75;;
23300;SDS011;11819;51.394;12.340;2023-07-22T00:07:39;14.18;;;9.82;;
23300;SDS011;11819;51.394;12.340;2023-07-22T00:10:05;12.27;;;9.30;;
23300;SDS011;11819;51.394;12.340;2023-07-22T00:12:34;12.15;;;10.30;;
23300;SDS011;11819;51.394;12.340;2023-07-22T00:14:59;12.95;;;10.45;;
23300;SDS011;11819;51.394;12.340;2023-07-22T00:17:26;12.57;;;10.20;;
23300;SDS011;11819;51.394;12.340;2023-07-22T00:19:51;12.00;;;10.48;;
23300;SDS011;11819;51.394;12.340;2023-07-22T00:22:18;11.82;;;9.98;;
23300;SDS011;11819;51.394;12.340;2023-07-22T00:24:47;13.00;;;10.10;;
23300;SDS011;11819;51.394;12.340;2023-07-22T00:27:14;14.15;;;10.70;;
23300;SDS011;11819;51.394;12.340;2023-07-22T00:29:40;15.10;;;10.93;;
23300;SDS011;11819;51.394;12.340;2023-07-22T00:32:07;15.63;;;11.45;;
23300;SDS011;11819;51.394;12.340;2023-07-22T00:34:34;13.25;;;11.75;;
23300;SDS011;11819;51.394;12.340;2023-07-22T00:37:02;13.02;;;11.27;;
23300;SDS011;11819;51.394;12.340;2023-07-22T00:39:27;13.77;;;11.40;;
23300;SDS011;11819;51.394;12.340;2023-07-22T00:41:53;13.95;;;11.13;;
23300;SDS011;11819;51.394;12.340;2023-07-22T00:44:21;15.00;;;11.65;;
23300;SDS011;11819;51.394;12.340;2023-07-22T00:46:47;12.93;;;11.27;;
23300;SDS011;11819;51.394;12.340;2023-07-22T00:49:14;16.13;;;12.23;;
23300;SDS011;11819;51.394;12.340;2023-07-22T00:51:40;14.00;;;11.88;;
23300;SDS011;11819;51.394;12.340;2023-07-22T00:54:06;16.40;;;12.85;;
23300;SDS011;11819;51.394;12.340;2023-07-22T00:56:33;14.43;;;12.25;;
23300;SDS011;11819;51.394;12.340;2023-07-22T00:59:01;13.13;;;11.00;;
23300;SDS011;11819;51.394;12.340;2023-07-22T01:01:27;13.27;;;11.50;;
23300;SDS011;11819;51.394;12.340;2023-07-22T01:03:53;13.90;;;11.68;;
23300;SDS011;11819;51.394;12.340;2023-07-22T01:06:20;16.83;;;11.27;;
23300;SDS011;11819;51.394;12.340;2023-07-22T01:08:46;13.38;;;11.98;;
23300;SDS011;11819;51.394;12.340;2023-07-22T01:11:13;13.50;;;11.23;;
23300;SDS011;11819;51.394;12.340;2023-07-22T01:13:39;13.52;;;12.10;;
23300;SDS011;11819;51.394;12.340;2023-07-22T01:16:05;14.52;;;11.23;;
23300;SDS011;11819;51.394;12.340;2023-07-22T01:18:32;14.23;;;11.77;;
23300;SDS011;11819;51.394;12.340;2023-07-22T01:20:58;15.95;;;12.23;;
23300;SDS011;11819;51.394;12.340;2023-07-22T01:23:24;12.85;;;11.45;;
23300;SDS011;11819;51.394;12.340;2023-07-22T01:25:50;14.00;;;11.85;;
23300;SDS011;11819;51.394;12.340;2023-07-22T01:28:17;14.02;;;11.80;;
23300;SDS011;11819;51.394;12.340;2023-07-22T01:30:42;14.73;;;11.75;;
23300;SDS011;11819;51.394;12.340;2023-07-22T01:33:08;14.38;;;12.13;;
23300;SDS011;11819;51.394;12.340;2023-07-22T01:35:34;15.32;;;11.52;;
23300;SDS011;11819;51.394;12.340;2023-07-22T01:38:00;14.20;;;12.35;;
23300;SDS011;11819;51.394;12.340;2023-07-22T01:40:26;19.38;;;12.25;;
23300;SDS011;11819;51.394;12.340;2023-07-22T01:42:51;14.02;;;12.52;;
23300;SDS011;11819;51.394;12.340;2023-07-22T01:45:17;15.88;;;12.75;;
23300;SDS011;11819;51.394;12.340;2023-07-22T01:47:43;14.38;;;12.05;;
23300;SDS011;11819;51.394;12.340;2023-07-22T01:50:09;13.80;;;11.80;;
23300;SDS011;11819;51.394;12.340;2023-07-22T01:52:36;13.75;;;12.20;;
23300;SDS011;11819;51.394;12.340;2023-07-22T01:55:02;15.10;;;12.35;;
23300;SDS011;11819;51.394;12.340;2023-07-22T01:57:34;13.77;;;11.60;;
23300;SDS011;11819;51.394;12.340;2023-07-22T02:00:00;13.43;;;11.93;;
23300;SDS011;11819;51.394;12.340;2023-07-22T02:02:26;14.60;;;13.00;;
23300;SDS011;11819;51.394;12.340;2023-07-22T02:04:51;17.27;;;12.68;;
23300;SDS011;11819;51.394;12.340;2023-07-22T02:07:17;15.40;;;12.00;;
23300;SDS011;11819;51.394;12.340;2023-07-22T02:09:44;13.65;;;12.00;;
23300;SDS011;11819;51.394;12.340;2023-07-22T02:12:10;13.70;;;11.45;;
23300;SDS011;11819;51.394;12.340;2023-07-22T02:14:36;16.83;;;14.02;;
23300;SDS011;11819;51.394;12.340;2023-07-22T02:17:02;15.73;;;12.48;;
23300;SDS011;11819;51.394;12.340;2023-07-22T02:19:28;14.90;;;12.75;;
23300;SDS011;11819;51.394;12.340;2023-07-22T02:21:54;14.85;;;13.05;;
23300;SDS011;11819;51.394;12.340;2023-07-22T02:24:21;15.40;;;12.63;;
23300;SDS011;11819;51.394;12.340;2023-07-22T02:26:46;13.40;;;12.00;;
23300;SDS011;11819;51.394;12.340;2023-07-22T02:29:12;13.75;;;12.10;;
23300;SDS011;11819;51.394;12.340;2023-07-22T02:31:38;15.05;;;12.90;;
23300;SDS011;11819;51.394;12.340;2023-07-22T02:34:05;15.43;;;12.82;;
23300;SDS011;11819;51.394;12.340;2023-07-22T02:36:31;16.30;;;12.82;;
23300;SDS011;11819;51.394;12.340;2023-07-22T02:38:56;15.40;;;12.75;;
23300;SDS011;11819;51.394;12.340;2023-07-22T02:41:22;14.85;;;12.10;;
23300;SDS011;11819;51.394;12.340;2023-07-22T02:43:48;17.02;;;12.48;;
23300;SDS011;11819;51.394;12.340;2023-07-22T02:46:13;15.43;;;13.13;;
23300;SDS011;11819;51.394;12.340;2023-07-22T02:48:39;15.10;;;12.27;;
23300;SDS011;11819;51.394;12.340;2023-07-22T02:51:09;18.63;;;13.40;;
23300;SDS011;11819;51.394;12.340;2023-07-22T02:53:35;15.68;;;13.52;;
23300;SDS011;11819;51.394;12.340;2023-07-22T02:56:02;15.30;;;13.20;;
23300;SDS011;11819;51.394;12.340;2023-07-22T02:58:29;15.07;;;13.48;;
23300;SDS011;11819;51.394;12.340;2023-07-22T03:00:54;17.17;;;13.90;;
23300;SDS011;11819;51.394;12.340;2023-07-22T03:03:22;16.08;;;14.20;;
23300;SDS011;11819;51.394;12.340;2023-07-22T03:05:48;16.42;;;14.63;;
23300;SDS011;11819;51.394;12.340;2023-07-22T03:08:14;16.98;;;13.18;;
23300;SDS011;11819;51.394;12.340;2023-07-22T03:10:40;18.00;;;14.27;;
23300;SDS011;11819;51.394;12.340;2023-07-22T03:13:06;17.45;;;14.45;;
23300;SDS011;11819;51.394;12.340;2023-07-22T03:15:33;19.63;;;15.60;;
23300;SDS011;11819;51.394;12.340;2023-07-22T03:17:58;17.77;;;14.32;;
23300;SDS011;11819;51.394;12.340;2023-07-22T03:20:25;17.25;;;14.15;;
23300;SDS011;11819;51.394;12.340;2023-07-22T03:22:50;17.38;;;13.98;;
23300;SDS011;11819;51.394;12.340;2023-07-22T03:25:16;16.80;;;13.40;;
23300;SDS011;11819;51.394;12.340;2023-07-22T03:27:43;16.98;;;13.82;;
23300;SDS011;11819;51.394;12.340;2023-07-22T03:30:11;16.45;;;14.60;;
23300;SDS011;11819;51.394;12.340;2023-07-22T03:32:40;17.55;;;14.15;;
23300;SDS011;11819;51.394;12.340;2023-07-22T03:35:07;17.05;;;14.27;;
23300;SDS011;11819;51.394;12.340;2023-07-22T03:37:35;19.95;;;14.55;;
23300;SDS011;11819;51.394;12.340;2023-07-22T03:40:02;16.48;;;13.77;;
23300;SDS011;11819;51.394;12.340;2023-07-22T03:42:40;18.30;;;15.30;;
23300;SDS011;11819;51.394;12.340;2023-07-22T03:45:07;17.15;;;15.27;;
23300;SDS011;11819;51.394;12.340;2023-07-22T03:47:35;17.15;;;15.30;;
23300;SDS011;11819;51.394;12.340;2023-07-22T03:50:01;21.55;;;17.42;;
23300;SDS011;11819;51.394;12.340;2023-07-22T03:52:28;17.63;;;15.40;;
23300;SDS011;11819;51.394;12.340;2023-07-22T03:54:54;20.95;;;16.67;;
23300;SDS011;11819;51.394;12.340;2023-07-22T03:57:24;19.73;;;16.23;;
23300;SDS011;11819;51.394;12.340;2023-07-22T03:59:56;20.55;;;17.02;;
23300;SDS011;11819;51.394;12.340;2023-07-22T04:02:23;20.45;;;17.25;;
23300;SDS011;11819;51.394;12.340;2023-07-22T04:04:56;19.13;;;15.70;;
23300;SDS011;11819;51.394;12.340;2023-07-22T04:07:22;18.70;;;15.85;;
23300;SDS011;11819;51.394;12.340;2023-07-22T04:09:48;19.95;;;15.85;;
23300;SDS011;11819;51.394;12.340;2023-07-22T04:12:14;16.90;;;14.70;;
23300;SDS011;11819;51.394;12.340;2023-07-22T04:14:42;19.73;;;15.77;;
23300;SDS011;11819;51.394;12.340;2023-07-22T04:17:07;18.17;;;16.02;;
23300;SDS011;11819;51.394;12.340;2023-07-22T04:19:33;19.35;;;15.85;;
23300;SDS011;11819;51.394;12.340;2023-07-22T04:21:59;21.25;;;16.05;;
23300;SDS011;11819;51.394;12.340;2023-07-22T04:24:32;20.15;;;16.15;;
23300;SDS011;11819;51.394;12.340;2023-07-22T04:27:00;19.65;;;16.85;;
23300;SDS011;11819;51.394;12.340;2023-07-22T04:29:26;21.15;;;16.08;;
23300;SDS011;11819;51.394;12.340;2023-07-22T04:31:56;18.02;;;15.43;;
23300;SDS011;11819;51.394;12.340;2023-07-22T04:34:28;20.95;;;16.63;;
23300;SDS011;11819;51.394;12.340;2023-07-22T04:36:55;22.52;;;16.40;;
23300;SDS011;11819;51.394;12.340;2023-07-22T04:39:21;19.27;;;16.85;;
23300;SDS011;11819;51.394;12.340;2023-07-22T04:41:47;21.05;;;16.50;;
23300;SDS011;11819;51.394;12.340;2023-07-22T04:44:12;19.70;;;16.90;;
23300;SDS011;11819;51.394;12.340;2023-07-22T04:46:39;20.85;;;16.10;;
23300;SDS011;11819;51.394;12.340;2023-07-22T04:49:05;18.52;;;15.57;;
23300;SDS011;11819;51.394;12.340;2023-07-22T04:51:33;21.33;;;16.08;;
23300;SDS011;11819;51.394;12.340;2023-07-22T04:53:59;22.92;;;15.98;;
23300;SDS011;11819;51.394;12.340;2023-07-22T04:56:24;20.65;;;16.40;;
23300;SDS011;11819;51.394;12.340;2023-07-22T04:58:50;23.05;;;17.83;;
23300;SDS011;11819;51.394;12.340;2023-07-22T05:01:16;19.60;;;15.88;;
23300;SDS011;11819;51.394;12.340;2023-07-22T05:03:41;21.75;;;16.58;;
23300;SDS011;11819;51.394;12.340;2023-07-22T05:06:08;20.02;;;15.48;;
23300;SDS011;11819;51.394;12.340;2023-07-22T05:08:33;19.55;;;16.25;;
23300;SDS011;11819;51.394;12.340;2023-07-22T05:10:59;19.02;;;15.63;;
23300;SDS011;11819;51.394;12.340;2023-07-22T05:13:25;20.58;;;15.00;;
23300;SDS011;11819;51.394;12.340;2023-07-22T05:15:51;20.88;;;15.52;;
23300;SDS011;11819;51.394;12.340;2023-07-22T05:18:16;17.27;;;14.98;;
23300;SDS011;11819;51.394;12.340;2023-07-22T05:20:42;19.17;;;15.23;;
23300;SDS011;11819;51.394;12.340;2023-07-22T05:23:08;18.45;;;14.90;;
23300;SDS011;11819;51.394;12.340;2023-07-22T05:25:33;19.52;;;15.25;;
23300;SDS011;11819;51.394;12.340;2023-07-22T05:27:59;19.45;;;14.32;;
23300;SDS011;11819;51.394;12.340;2023-07-22T05:30:24;21.85;;;15.43;;
23300;SDS011;11819;51.394;12.340;2023-07-22T05:32:52;18.63;;;14.40;;
23300;SDS011;11819;51.394;12.340;2023-07-22T05:35:18;17.95;;;13.90;;
23300;SDS011;11819;51.394;12.340;2023-07-22T05:37:43;16.92;;;13.88;;
23300;SDS011;11819;51.394;12.340;2023-07-22T05:40:09;18.30;;;13.93;;
23300;SDS011;11819;51.394;12.340;2023-07-22T05:42:35;18.98;;;13.38;;
23300;SDS011;11819;51.394;12.340;2023-07-22T05:45:02;21.00;;;13.05;;
23300;SDS011;11819;51.394;12.340;2023-07-22T05:47:29;14.43;;;12.07;;
23300;SDS011;11819;51.394;12.340;2023-07-22T05:49:54;17.25;;;12.55;;
23300;SDS011;11819;51.394;12.340;2023-07-22T05:52:20;16.27;;;12.40;;
23300;SDS011;11819;51.394;12.340;2023-07-22T05:54:46;15.88;;;12.15;;
23300;SDS011;11819;51.394;12.340;2023-07-22T05:57:11;16.27;;;12.00;;
23300;SDS011;11819;51.394;12.340;2023-07-22T05:59:37;15.70;;;11.25;;
23300;SDS011;11819;51.394;12.340;2023-07-22T06:02:05;17.50;;;11.55;;
23300;SDS011;11819;51.394;12.340;2023-07-22T06:04:33;16.48;;;11.52;;
23300;SDS011;11819;51.394;12.340;2023-07-22T06:06:59;17.23;;;11.43;;
23300;SDS011;11819;51.394;12.340;2023-07-22T06:09:24;15.20;;;11.35;;
23300;SDS011;11819;51.394;12.340;2023-07-22T06:11:50;16.00;;;10.98;;
23300;SDS011;11819;51.394;12.340;2023-07-22T06:14:16;17.77;;;12.18;;
23300;SDS011;11819;51.394;12.340;2023-07-22T06:16:41;16.42;;;11.18;;
23300;SDS011;11819;51.394;12.340;2023-07-22T06:19:07;15.93;;;10.40;;
23300;SDS011;11819;51.394;12.340;2023-07-22T06:21:33;15.85;;;11.35;;
23300;SDS011;11819;51.394;12.340;2023-07-22T06:23:58;15.70;;;10.48;;
23300;SDS011;11819;51.394;12.340;2023-07-22T06:26:24;13.63;;;9.98;;
23300;SDS011;11819;51.394;12.340;2023-07-22T06:28:50;14.80;;;10.40;;
23300;SDS011;11819;51.394;12.340;2023-07-22T06:31:15;15.07;;;9.50;;
23300;SDS011;11819;51.394;12.340;2023-07-22T06:33:43;14.65;;;9.15;;
23300;SDS011;11819;51.394;12.340;2023-07-22T06:36:09;13.95;;;9.57;;
23300;SDS011;11819;51.394;12.340;2023-07-22T06:38:34;15.73;;;9.90;;
23300;SDS011;11819;51.394;12.340;2023-07-22T06:41:00;16.88;;;10.07;;
23300;SDS011;11819;51.394;12.340;2023-07-22T06:43:25;13.73;;;9.35;;
23300;SDS011;11819;51.394;12.340;2023-07-22T06:45:51;15.85;;;10.00;;
23300;SDS011;11819;51.394;12.340;2023-07-22T06:48:17;16.55;;;8.88;;
23300;SDS011;11819;51.394;12.340;2023-07-22T06:50:49;12.60;;;8.65;;
23300;SDS011;11819;51.394;12.340;2023-07-22T06:53:15;14.88;;;8.85;;
23300;SDS011;11819;51.394;12.340;2023-07-22T06:55:48;13.75;;;8.65;;
23300;SDS011;11819;51.394;12.340;2023-07-22T06:58:17;13.77;;;7.90;;
23300;SDS011;11819;51.394;12.340;2023-07-22T07:00:43;17.55;;;10.77;;
23300;SDS011;11819;51.394;12.340;2023-07-22T07:03:09;12.40;;;8.35;;
23300;SDS011;11819;51.394;12.340;2023-07-22T07:05:35;12.90;;;8.68;;
23300;SDS011;11819;51.394;12.340;2023-07-22T07:08:01;10.70;;;7.63;;
23300;SDS011;11819;51.394;12.340;2023-07-22T07:10:27;14.93;;;8.80;;
23300;SDS011;11819;51.394;12.340;2023-07-22T07:12:54;11.38;;;7.95;;
23300;SDS011;11819;51.394;12.340;2023-07-22T07:15:19;12.13;;;8.02;;
23300;SDS011;11819;51.394;12.340;2023-07-22T07:17:45;11.43;;;7.57;;
23300;SDS011;11819;51.394;12.340;2023-07-22T07:20:10;11.20;;;7.85;;
23300;SDS011;11819;51.394;12.340;2023-07-22T07:22:38;11.35;;;6.82;;
23300;SDS011;11819;51.394;12.340;2023-07-22T07:25:04;13.32;;;7.20;;
23300;SDS011;11819;51.394;12.340;2023-07-22T07:27:30;10.55;;;7.10;;
23300;SDS011;11819;51.394;12.340;2023-07-22T07:29:56;9.98;;;6.70;;
23300;SDS011;11819;51.394;12.340;2023-07-22T07:32:23;10.45;;;6.70;;
23300;SDS011;11819;51.394;12.340;2023-07-22T07:34:49;11.55;;;6.55;;
23300;SDS011;11819;51.394;12.340;2023-07-22T07:37:14;9.98;;;6.22;;
23300;SDS011;11819;51.394;12.340;2023-07-22T07:39:40;9.52;;;5.78;;
23300;SDS011;11819;51.394;12.340;2023-07-22T07:42:06;9.70;;;5.85;;
23300;SDS011;11819;51.394;12.340;2023-07-22T07:44:32;10.63;;;6.60;;
23300;SDS011;11819;51.394;12.340;2023-07-22T07:46:57;11.30;;;5.85;;
23300;SDS011;11819;51.394;12.340;2023-07-22T07:49:23;10.30;;;5.43;;
23300;SDS011;11819;51.394;12.340;2023-07-22T07:51:50;8.85;;;6.05;;
23300;SDS011;11819;51.394;12.340;2023-07-22T07:54:15;12.57;;;6.85;;
23300;SDS011;11819;51.394;12.340;2023-07-22T07:56:42;10.57;;;5.93;;
23300;SDS011;11819;51.394;12.340;2023-07-22T07:59:08;9.18;;;5.93;;
23300;SDS011;11819;51.394;12.340;2023-07-22T08:01:34;8.80;;;4.93;;
23300;SDS011;11819;51.394;12.340;2023-07-22T08:04:02;8.80;;;5.63;;
23300;SDS011;11819;51.394;12.340;2023-07-22T08:06:28;8.75;;;5.50;;
23300;SDS011;11819;51.394;12.340;2023-07-22T08:08:53;9.68;;;5.28;;
23300;SDS011;11819;51.394;12.340;2023-07-22T08:11:19;11.25;;;5.00;;
23300;SDS011;11819;51.394;12.340;2023-07-22T08:13:44;8.20;;;4.88;;
23300;SDS011;11819;51.394;12.340;2023-07-22T08:16:11;8.48;;;5.35;;
23300;SDS011;11819;51.394;12.340;2023-07-22T08:18:38;6.40;;;4.53;;
23300;SDS011;11819;51.394;12.340;2023-07-22T08:21:05;8.40;;;4.90;;
23300;SDS011;11819;51.394;12.340;2023-07-22T08:23:36;7.38;;;4.35;;
23300;SDS011;11819;51.394;12.340;2023-07-22T08:26:03;8.00;;;4.90;;
23300;SDS011;11819;51.394;12.340;2023-07-22T08:28:33;9.68;;;4.90;;
23300;SDS011;11819;51.394;12.340;2023-07-22T08:30:59;9.05;;;5.20;;
23300;SDS011;11819;51.394;12.340;2023-07-22T08:33:25;9.75;;;4.80;;
23300;SDS011;11819;51.394;12.340;2023-07-22T08:35:51;9.98;;;5.28;;
23300;SDS011;11819;51.394;12.340;2023-07-22T08:38:17;8.82;;;4.90;;
23300;SDS011;11819;51.394;12.340;2023-07-22T08:40:43;8.43;;;5.15;;
23300;SDS011;11819;51.394;12.340;2023-07-22T08:43:10;8.23;;;4.68;;
23300;SDS011;11819;51.394;12.340;2023-07-22T08:45:39;7.38;;;4.95;;
23300;SDS011;11819;51.394;12.340;2023-07-22T08:48:08;7.55;;;5.07;;
23300;SDS011;11819;51.394;12.340;2023-07-22T08:50:52;7.80;;;4.55;;
23300;SDS011;11819;51.394;12.340;2023-07-22T08:53:18;9.98;;;5.72;;
23300;SDS011;11819;51.394;12.340;2023-07-22T08:55:45;8.90;;;5.65;;
23300;SDS011;11819;51.394;12.340;2023-07-22T08:58:13;9.25;;;5.75;;
23300;SDS011;11819;51.394;12.340;2023-07-22T09:00:39;9.90;;;5.75;;
23300;SDS011;11819;51.394;12.340;2023-07-22T09:03:07;9.35;;;5.25;;
23300;SDS011;11819;51.394;12.340;2023-07-22T09:05:34;9.10;;;5.38;;
23300;SDS011;11819;51.394;12.340;2023-07-22T09:08:01;7.80;;;5.63;;
23300;SDS011;11819;51.394;12.340;2023-07-22T09:10:28;9.15;;;5.05;;
23300;SDS011;11819;51.394;12.340;2023-07-22T09:12:54;9.98;;;5.75;;
23300;SDS011;11819;51.394;12.340;2023-07-22T09:15:22;9.60;;;5.63;;
23300;SDS011;11819;51.394;12.340;2023-07-22T09:17:48;7.32;;;5.53;;
23300;SDS011;11819;51.394;12.340;2023-07-22T09:20:14;7.57;;;4.30;;
23300;SDS011;11819;51.394;12.340;2023-07-22T09:22:44;7.80;;;4.80;;
23300;SDS011;11819;51.394;12.340;2023-07-22T09:25:29;7.68;;;4.60;;
23300;SDS011;11819;51.394;12.340;2023-07-22T09:27:55;7.13;;;4.88;;
23300;SDS011;11819;51.394;12.340;2023-07-22T09:30:29;8.27;;;4.47;;
23300;SDS011;11819;51.394;12.340;2023-07-22T09:32:58;7.88;;;4.70;;
23300;SDS011;11819;51.394;12.340;2023-07-22T09:35:58;7.40;;;4.63;;
23300;SDS011;11819;51.394;12.340;2023-07-22T09:38:23;7.03;;;4.22;;
23300;SDS011;11819;51.394;12.340;2023-07-22T09:40:51;8.07;;;4.85;;
23300;SDS011;11819;51.394;12.340;2023-07-22T09:43:18;8.60;;;5.22;;
23300;SDS011;11819;51.394;12.340;2023-07-22T09:45:46;8.40;;;5.18;;
23300;SDS011;11819;51.394;12.340;2023-07-22T09:48:13;7.55;;;5.57;;
23300;SDS011;11819;51.394;12.340;2023-07-22T09:50:38;7.93;;;5.28;;
23300;SDS011;11819;51.394;12.340;2023-07-22T09:53:04;6.90;;;4.63;;
23300;SDS011;11819;51.394;12.340;2023-07-22T09:55:31;8.30;;;5.38;;
23300;SDS011;11819;51.394;12.340;2023-07-22T09:58:02;8.82;;;6.13;;
23300;SDS011;11819;51.394;12.340;2023-07-22T10:00:29;11.73;;;5.15;;
23300;SDS011;11819;51.394;12.340;2023-07-22T10:03:01;8.00;;;5.30;;
23300;SDS011;11819;51.394;12.340;2023-07-22T10:05:33;7.78;;;5.60;;
23300;SDS011;11819;51.394;12.340;2023-07-22T10:08:00;9.20;;;5.57;;
23300;SDS011;11819;51.394;12.340;2023-07-22T10:10:31;7.72;;;5.20;;
23300;SDS011;11819;51.394;12.340;2023-07-22T10:12:59;7.65;;;5.28;;
23300;SDS011;11819;51.394;12.340;2023-07-22T10:15:29;7.10;;;4.70;;
23300;SDS011;11819;51.394;12.340;2023-07-22T10:17:58;8.80;;;6.03;;
23300;SDS011;11819;51.394;12.340;2023-07-22T10:20:25;9.73;;;5.78;;
23300;SDS011;11819;51.394;12.340;2023-07-22T10:22:51;9.15;;;5.40;;
23300;SDS011;11819;51.394;12.340;2023-07-22T10:25:18;8.27;;;4.95;;
23300;SDS011;11819;51.394;12.340;2023-07-22T10:27:46;8.55;;;4.95;;
23300;SDS011;11819;51.394;12.340;2023-07-22T10:30:15;7.43;;;5.28;;
23300;SDS011;11819;51.394;12.340;2023-07-22T10:32:43;7.03;;;4.50;;
23300;SDS011;11819;51.394;12.340;2023-07-22T10:35:22;7.90;;;5.53;;
23300;SDS011;11819;51.394;12.340;2023-07-22T10:38:07;7.35;;;5.30;;
23300;SDS011;11819;51.394;12.340;2023-07-22T10:43:15;7.57;;;5.30;;
23300;SDS011;11819;51.394;12.340;2023-07-22T10:45:51;6.38;;;4.47;;
23300;SDS011;11819;51.394;12.340;2023-07-22T10:48:19;7.97;;;5.30;;
23300;SDS011;11819;51.394;12.340;2023-07-22T10:56:03;7.22;;;4.88;;
23300;SDS011;11819;51.394;12.340;2023-07-22T11:04:14;8.63;;;4.47;;
23300;SDS011;11819;51.394;12.340;2023-07-22T11:14:22;7.60;;;4.40;;
23300;SDS011;11819;51.394;12.340;2023-07-22T11:16:49;7.65;;;4.88;;
23300;SDS011;11819;51.394;12.340;2023-07-22T11:19:18;8.20;;;4.85;;
23300;SDS011;11819;51.394;12.340;2023-07-22T11:21:47;6.50;;;4.60;;
23300;SDS011;11819;51.394;12.340;2023-07-22T11:24:14;9.02;;;4.72;;
23300;SDS011;11819;51.394;12.340;2023-07-22T11:26:40;8.43;;;3.92;;
23300;SDS011;11819;51.394;12.340;2023-07-22T11:29:07;7.32;;;4.78;;
23300;SDS011;11819;51.394;12.340;2023-07-22T11:31:34;8.32;;;4.28;;
23300;SDS011;11819;51.394;12.340;2023-07-22T11:36:38;7.15;;;4.28;;
23300;SDS011;11819;51.394;12.340;2023-07-22T11:39:05;7.78;;;4.40;;
23300;SDS011;11819;51.394;12.340;2023-07-22T11:41:32;6.78;;;4.28;;
23300;SDS011;11819;51.394;12.340;2023-07-22T11:44:00;6.47;;;4.40;;
23300;SDS011;11819;51.394;12.340;2023-07-22T11:46:27;7.28;;;4.10;;
23300;SDS011;11819;51.394;12.340;2023-07-22T11:48:54;6.43;;;3.97;;
23300;SDS011;11819;51.394;12.340;2023-07-22T11:51:21;6.18;;;4.22;;
23300;SDS011;11819;51.394;12.340;2023-07-22T11:53:52;6.60;;;4.28;;
23300;SDS011;11819;51.394;12.340;2023-07-22T11:56:26;6.88;;;4.53;;
23300;SDS011;11819;51.394;12.340;2023-07-22T11:58:54;7.25;;;4.20;;
23300;SDS011;11819;51.394;12.340;2023-07-22T12:01:21;7.13;;;4.43;;
23300;SDS011;11819;51.394;12.340;2023-07-22T12:03:47;6.32;;;4.50;;
23300;SDS011;11819;51.394;12.340;2023-07-22T12:06:14;7.43;;;4.90;;
23300;SDS011;11819;51.394;12.340;2023-07-22T12:08:44;6.70;;;4.63;;
23300;SDS011;11819;51.394;12.340;2023-07-22T12:11:17;6.32;;;4.63;;
23300;SDS011;11819;51.394;12.340;2023-07-22T12:13:44;7.05;;;4.70;;
23300;SDS011;11819;51.394;12.340;2023-07-22T12:16:11;6.32;;;4.32;;
23300;SDS011;11819;51.394;12.340;2023-07-22T12:18:44;8.43;;;5.00;;
23300;SDS011;11819;51.394;12.340;2023-07-22T12:21:11;7.30;;;4.90;;
23300;SDS011;11819;51.394;12.340;2023-07-22T12:23:37;6.40;;;4.43;;
23300;SDS011;11819;51.394;12.340;2023-07-22T12:26:04;6.70;;;4.40;;
23300;SDS011;11819;51.394;12.340;2023-07-22T12:28:30;7.72;;;4.57;;
23300;SDS011;11819;51.394;12.340;2023-07-22T12:30:56;7.13;;;5.10;;
23300;SDS011;11819;51.394;12.340;2023-07-22T12:33:23;7.80;;;4.60;;
23300;SDS011;11819;51.394;12.340;2023-07-22T12:35:56;6.88;;;4.72;;
23300;SDS011;11819;51.394;12.340;2023-07-22T12:38:22;8.88;;;5.28;;
23300;SDS011;11819;51.394;12.340;2023-07-22T12:40:48;7.47;;;4.30;;
23300;SDS011;11819;51.394;12.340;2023-07-22T12:43:14;7.25;;;4.70;;
23300;SDS011;11819;51.394;12.340;2023-07-22T12:45:40;7.90;;;5.57;;
23300;SDS011;11819;51.394;12.340;2023-07-22T12:48:05;7.93;;;4.95;;
23300;SDS011;11819;51.394;12.340;2023-07-22T12:50:31;7.15;;;4.53;;
23300;SDS011;11819;51.394;12.340;2023-07-22T12:52:58;6.80;;;4.32;;
23300;SDS011;11819;51.394;12.340;2023-07-22T12:55:24;7.07;;;4.82;;
23300;SDS011;11819;51.394;12.340;2023-07-22T12:57:50;8.77;;;5.00;;
23300;SDS011;11819;51.394;12.340;2023-07-22T13:00:16;6.30;;;4.57;;
23300;SDS011;11819;51.394;12.340;2023-07-22T13:02:42;7.80;;;4.70;;
23300;SDS011;11819;51.394;12.340;2023-07-22T13:05:07;7.93;;;5.38;;
23300;SDS011;11819;51.394;12.340;2023-07-22T13:07:34;7.93;;;4.68;;
23300;SDS011;11819;51.394;12.340;2023-07-22T13:10:00;8.73;;;5.40;;
23300;SDS011;11819;51.394;12.340;2023-07-22T13:12:28;7.30;;;5.43;;
23300;SDS011;11819;51.394;12.340;2023-07-22T13:14:54;6.93;;;4.78;;
23300;SDS011;11819;51.394;12.340;2023-07-22T13:17:19;8.88;;;6.00;;
23300;SDS011;11819;51.394;12.340;2023-07-22T13:19:45;7.82;;;5.25;;
23300;SDS011;11819;51.394;12.340;2023-07-22T13:22:11;6.78;;;4.65;;
23300;SDS011;11819;51.394;12.340;2023-07-22T13:24:37;12.60;;;5.90;;
23300;SDS011;11819;51.394;12.340;2023-07-22T13:27:03;8.32;;;4.95;;
23300;SDS011;11819;51.394;12.340;2023-07-22T13:29:30;7.80;;;4.82;;
23300;SDS011;11819;51.394;12.340;2023-07-22T13:31:56;7.10;;;5.38;;
23300;SDS011;11819;51.394;12.340;2023-07-22T13:34:21;6.82;;;4.85;;
23300;SDS011;11819;51.394;12.340;2023-07-22T13:36:47;9.07;;;5.35;;
23300;SDS011;11819;51.394;12.340;2023-07-22T13:39:13;7.35;;;5.18;;
23300;SDS011;11819;51.394;12.340;2023-07-22T13:41:40;6.95;;;5.07;;
23300;SDS011;11819;51.394;12.340;2023-07-22T13:44:05;8.50;;;5.30;;
23300;SDS011;11819;51.394;12.340;2023-07-22T13:46:31;7.53;;;4.78;;
23300;SDS011;11819;51.394;12.340;2023-07-22T13:48:57;7.22;;;5.50;;
23300;SDS011;11819;51.394;12.340;2023-07-22T13:51:23;6.75;;;4.43;;
23300;SDS011;11819;51.394;12.340;2023-07-22T13:53:49;7.18;;;5.18;;
23300;SDS011;11819;51.394;12.340;2023-07-22T13:56:17;8.73;;;5.20;;
23300;SDS011;11819;51.394;12.340;2023-07-22T13:58:43;8.82;;;5.22;;
23300;SDS011;11819;51.394;12.340;2023-07-22T14:01:09;7.05;;;4.28;;
23300;SDS011;11819;51.394;12.340;2023-07-22T14:03:34;6.63;;;5.35;;
23300;SDS011;11819;51.394;12.340;2023-07-22T14:06:00;7.95;;;5.43;;
23300;SDS011;11819;51.394;12.340;2023-07-22T14:08:25;6.97;;;5.18;;
23300;SDS011;11819;51.394;12.340;2023-07-22T14:10:53;7.25;;;4.70;;
23300;SDS011;11819;51.394;12.340;2023-07-22T14:13:19;6.90;;;5.00;;
23300;SDS011;11819;51.394;12.340;2023-07-22T14:15:44;6.32;;;4.40;;
23300;SDS011;11819;51.394;12.340;2023-07-22T14:18:10;7.07;;;4.97;;
23300;SDS011;11819;51.394;12.340;2023-07-22T14:20:35;7.40;;;4.80;;
23300;SDS011;11819;51.394;12.340;2023-07-22T14:23:01;6.78;;;4.50;;
23300;SDS011;11819;51.394;12.340;2023-07-22T14:25:28;6.68;;;4.80;;
23300;SDS011;11819;51.394;12.340;2023-07-22T14:27:54;7.68;;;4.75;;
23300;SDS011;11819;51.394;12.340;2023-07-22T14:30:20;7.68;;;4.55;;
23300;SDS011;11819;51.394;12.340;2023-07-22T14:32:46;8.77;;;5.70;;
23300;SDS011;11819;51.394;12.340;2023-07-22T14:35:12;7.13;;;5.00;;
23300;SDS011;11819;51.394;12.340;2023-07-22T14:37:38;6.53;;;4.80;;
23300;SDS011;11819;51.394;12.340;2023-07-22T14:40:06;6.63;;;5.10;;
23300;SDS011;11819;51.394;12.340;2023-07-22T14:42:34;7.07;;;5.00;;